sensor_id;sensor_type;location;lat;lon;timestamp;temperature;humidity
34833;DHT22;55941;50.800;4.342;2023-07-24T00:01:30;19.40;99.90
34833;DHT22;55941;50.800;4.342;2023-07-24T00:03:55;19.50;99.90
34833;DHT22;55941;50.800;4.342;2023-07-24T00:06:23;19.30;99.90
34833;DHT22;55941;50.800;4.342;2023-07-24T00:08:48;19.30;99.90
34833;DHT22;55941;50.800;4.342;2023-07-24T00:11:14;19.20;99.90
34833;DHT22;55941;50.800;4.342;2023-07-24T00:13:40;19.40;99.90
34833;DHT22;55941;50.800;4.342;2023-07-24T00:16:08;19.40;99.90
34833;DHT22;55941;50.800;4.342;2023-07-24T00:18:34;19.40;99.90
34833;DHT22;55941;50.800;4.342;2023-07-24T00:21:00;19.50;99.90
34833;DHT22;55941;50.800;4.342;2023-07-24T00:23:27;19.50;99.90
34833;DHT22;55941;50.800;4.342;2023-07-24T00:25:53;19.30;99.90
34833;DHT22;55941;50.800;4.342;2023-07-24T00:28:19;19.20;99.90
34833;DHT22;55941;50.800;4.342;2023-07-24T00:30:44;19.20;99.90
34833;DHT22;55941;50.800;4.342;2023-07-24T00:33:11;19.20;99.90
34833;DHT22;55941;50.800;4.342;2023-07-24T00:35:38;19.20;99.90
34833;DHT22;55941;50.800;4.342;2023-07-24T00:38:04;19.20;99.90
34833;DHT22;55941;50.800;4.342;2023-07-24T00:40:29;19.30;99.90
34833;DHT22;55941;50.800;4.342;2023-07-24T00:42:55;19.20;99.90
34833;DHT22;55941;50.800;4.342;2023-07-24T00:45:22;19.30;99.90
34833;DHT22;55941;50.800;4.342;2023-07-24T00:47:48;19.30;99.90
34833;DHT22;55941;50.800;4.342;2023-07-24T00:50:14;19.30;99.90
34833;DHT22;55941;50.800;4.342;2023-07-24T00:52:40;19.20;99.90
34833;DHT22;55941;50.800;4.342;2023-07-24T00:55:07;19.20;99.90
34833;DHT22;55941;50.800;4.342;2023-07-24T00:57:34;19.30;99.90
34833;DHT22;55941;50.800;4.342;2023-07-24T00:59:59;19.40;99.90
34833;DHT22;55941;50.800;4.342;2023-07-24T01:02:25;19.30;99.90
34833;DHT22;55941;50.800;4.342;2023-07-24T01:04:51;19.40;99.90
34833;DHT22;55941;50.800;4.342;2023-07-24T01:07:17;19.30;99.90
34833;DHT22;55941;50.800;4.342;2023-07-24T01:09:43;19.40;99.90
34833;DHT22;55941;50.800;4.342;2023-07-24T01:12:22;19.40;99.90
34833;DHT22;55941;50.800;4.342;2023-07-24T01:15:02;19.50;99.90
34833;DHT22;55941;50.800;4.342;2023-07-24T01:17:31;19.50;99.90
34833;DHT22;55941;50.800;4.342;2023-07-24T01:20:04;19.50;99.90
34833;DHT22;55941;50.800;4.342;2023-07-24T01:25:34;19.40;99.90
34833;DHT22;55941;50.800;4.342;2023-07-24T01:28:09;19.30;99.90
34833;DHT22;55941;50.800;4.342;2023-07-24T01:30:35;19.30;99.90
34833;DHT22;55941;50.800;4.342;2023-07-24T01:33:01;19.20;99.90
34833;DHT22;55941;50.800;4.342;2023-07-24T01:35:27;19.10;99.90
34833;DHT22;55941;50.800;4.342;2023-07-24T01:37:55;18.90;99.90
34833;DHT22;55941;50.800;4.342;2023-07-24T01:40:23;18.90;99.90
34833;DHT22;55941;50.800;4.342;2023-07-24T01:42:49;18.90;99.90
34833;DHT22;55941;50.800;4.342;2023-07-24T01:45:16;18.90;99.90
34833;DHT22;55941;50.800;4.342;2023-07-24T01:47:43;18.80;99.90
34833;DHT22;55941;50.800;4.342;2023-07-24T01:50:09;18.80;99.90
34833;DHT22;55941;50.800;4.342;2023-07-24T01:52:35;18.80;99.90
34833;DHT22;55941;50.800;4.342;2023-07-24T01:55:01;18.70;99.90
34833;DHT22;55941;50.800;4.342;2023-07-24T01:57:26;18.70;99.90
34833;DHT22;55941;50.800;4.342;2023-07-24T01:59:52;18.60;99.90
34833;DHT22;55941;50.800;4.342;2023-07-24T02:02:17;18.60;99.90
34833;DHT22;55941;50.800;4.342;2023-07-24T02:04:43;18.60;99.90
34833;DHT22;55941;50.800;4.342;2023-07-24T02:07:09;18.50;99.90
34833;DHT22;55941;50.800;4.342;2023-07-24T02:09:36;18.50;99.90
34833;DHT22;55941;50.800;4.342;2023-07-24T02:12:02;18.50;99.90
34833;DHT22;55941;50.800;4.342;2023-07-24T02:14:27;18.60;99.90
34833;DHT22;55941;50.800;4.342;2023-07-24T02:16:53;18.70;99.90
34833;DHT22;55941;50.800;4.342;2023-07-24T02:19:19;18.70;99.90
34833;DHT22;55941;50.800;4.342;2023-07-24T02:21:44;18.70;99.90
34833;DHT22;55941;50.800;4.342;2023-07-24T02:24:10;18.60;99.90
34833;DHT22;55941;50.800;4.342;2023-07-24T02:26:37;18.70;99.90
34833;DHT22;55941;50.800;4.342;2023-07-24T02:29:02;18.80;99.90
34833;DHT22;55941;50.800;4.342;2023-07-24T02:31:28;18.90;99.90
34833;DHT22;55941;50.800;4.342;2023-07-24T02:33:54;19.00;99.90
34833;DHT22;55941;50.800;4.342;2023-07-24T02:36:19;19.10;99.90
34833;DHT22;55941;50.800;4.342;2023-07-24T02:38:45;19.20;99.90
34833;DHT22;55941;50.800;4.342;2023-07-24T02:41:11;19.10;99.90
34833;DHT22;55941;50.800;4.342;2023-07-24T02:43:36;19.20;99.90
34833;DHT22;55941;50.800;4.342;2023-07-24T02:46:03;19.10;99.90
34833;DHT22;55941;50.800;4.342;2023-07-24T02:48:29;19.00;99.90
34833;DHT22;55941;50.800;4.342;2023-07-24T02:50:56;19.00;99.90
34833;DHT22;55941;50.800;4.342;2023-07-24T02:53:21;18.90;99.90
34833;DHT22;55941;50.800;4.342;2023-07-24T02:55:47;18.80;99.90
34833;DHT22;55941;50.800;4.342;2023-07-24T02:58:13;18.70;99.90
34833;DHT22;55941;50.800;4.342;2023-07-24T03:00:39;18.50;99.90
34833;DHT22;55941;50.800;4.342;2023-07-24T03:03:05;18.30;99.90
34833;DHT22;55941;50.800;4.342;2023-07-24T03:05:31;18.40;99.90
34833;DHT22;55941;50.800;4.342;2023-07-24T03:07:57;18.40;99.90
34833;DHT22;55941;50.800;4.342;2023-07-24T03:10:23;18.40;99.90
34833;DHT22;55941;50.800;4.342;2023-07-24T03:12:50;18.40;99.90
34833;DHT22;55941;50.800;4.342;2023-07-24T03:15:15;18.40;99.90
34833;DHT22;55941;50.800;4.342;2023-07-24T03:17:41;18.30;99.90
34833;DHT22;55941;50.800;4.342;2023-07-24T03:20:15;18.20;99.90
34833;DHT22;55941;50.800;4.342;2023-07-24T03:22:42;18.20;99.90
34833;DHT22;55941;50.800;4.342;2023-07-24T03:25:08;18.10;99.90
34833;DHT22;55941;50.800;4.342;2023-07-24T03:27:34;18.10;99.90
34833;DHT22;55941;50.800;4.342;2023-07-24T03:30:02;17.90;99.90
34833;DHT22;55941;50.800;4.342;2023-07-24T03:32:29;17.70;99.90
34833;DHT22;55941;50.800;4.342;2023-07-24T03:34:54;17.80;99.90
34833;DHT22;55941;50.800;4.342;2023-07-24T03:37:20;17.70;99.90
34833;DHT22;55941;50.800;4.342;2023-07-24T03:39:46;17.60;99.90
34833;DHT22;55941;50.800;4.342;2023-07-24T03:42:23;17.60;99.90
34833;DHT22;55941;50.800;4.342;2023-07-24T03:44:49;17.60;99.90
34833;DHT22;55941;50.800;4.342;2023-07-24T03:47:15;17.60;99.90
34833;DHT22;55941;50.800;4.342;2023-07-24T03:49:40;17.70;99.90
34833;DHT22;55941;50.800;4.342;2023-07-24T03:52:06;17.80;99.90
34833;DHT22;55941;50.800;4.342;2023-07-24T03:54:32;18.00;99.90
34833;DHT22;55941;50.800;4.342;2023-07-24T03:56:57;18.00;99.90
34833;DHT22;55941;50.800;4.342;2023-07-24T03:59:23;18.10;99.90
34833;DHT22;55941;50.800;4.342;2023-07-24T04:01:49;18.00;99.90
34833;DHT22;55941;50.800;4.342;2023-07-24T04:04:14;18.10;99.90
34833;DHT22;55941;50.800;4.342;2023-07-24T04:06:40;18.10;99.90
34833;DHT22;55941;50.800;4.342;2023-07-24T04:09:06;18.10;99.90
34833;DHT22;55941;50.800;4.342;2023-07-24T04:11:31;18.10;99.90
34833;DHT22;55941;50.800;4.342;2023-07-24T04:13:57;18.10;99.90
34833;DHT22;55941;50.800;4.342;2023-07-24T04:16:24;18.20;99.90
34833;DHT22;55941;50.800;4.342;2023-07-24T04:18:49;18.30;99.90
34833;DHT22;55941;50.800;4.342;2023-07-24T04:21:15;18.30;99.90
34833;DHT22;55941;50.800;4.342;2023-07-24T04:23:42;18.30;99.90
34833;DHT22;55941;50.800;4.342;2023-07-24T04:26:07;18.20;99.90
34833;DHT22;55941;50.800;4.342;2023-07-24T04:28:33;18.20;99.90
34833;DHT22;55941;50.800;4.342;2023-07-24T04:31:01;18.20;99.90
34833;DHT22;55941;50.800;4.342;2023-07-24T04:33:27;18.10;99.90
34833;DHT22;55941;50.800;4.342;2023-07-24T04:35:54;18.00;99.90
34833;DHT22;55941;50.800;4.342;2023-07-24T04:38:21;17.90;99.90
34833;DHT22;55941;50.800;4.342;2023-07-24T04:40:46;17.80;99.90
34833;DHT22;55941;50.800;4.342;2023-07-24T04:43:12;17.70;99.90
34833;DHT22;55941;50.800;4.342;2023-07-24T04:45:39;17.60;99.90
34833;DHT22;55941;50.800;4.342;2023-07-24T04:48:05;17.70;99.90
34833;DHT22;55941;50.800;4.342;2023-07-24T04:50:32;17.70;99.90
34833;DHT22;55941;50.800;4.342;2023-07-24T04:52:58;17.60;99.90
34833;DHT22;55941;50.800;4.342;2023-07-24T04:55:24;17.60;99.90
34833;DHT22;55941;50.800;4.342;2023-07-24T04:57:50;17.50;99.90
34833;DHT22;55941;50.800;4.342;2023-07-24T05:00:16;17.40;99.90
34833;DHT22;55941;50.800;4.342;2023-07-24T05:02:42;17.30;99.90
34833;DHT22;55941;50.800;4.342;2023-07-24T05:05:08;17.20;99.90
34833;DHT22;55941;50.800;4.342;2023-07-24T05:07:34;17.20;99.90
34833;DHT22;55941;50.800;4.342;2023-07-24T05:10:00;17.40;99.90
34833;DHT22;55941;50.800;4.342;2023-07-24T05:12:25;17.40;99.90
34833;DHT22;55941;50.800;4.342;2023-07-24T05:14:51;17.50;99.90
34833;DHT22;55941;50.800;4.342;2023-07-24T05:17:17;17.60;99.90
34833;DHT22;55941;50.800;4.342;2023-07-24T05:19:43;17.70;99.90
34833;DHT22;55941;50.800;4.342;2023-07-24T05:22:08;17.90;99.90
34833;DHT22;55941;50.800;4.342;2023-07-24T05:24:36;18.00;99.90
34833;DHT22;55941;50.800;4.342;2023-07-24T05:27:03;18.10;99.90
34833;DHT22;55941;50.800;4.342;2023-07-24T05:29:28;17.90;99.90
34833;DHT22;55941;50.800;4.342;2023-07-24T05:31:54;17.90;99.90
34833;DHT22;55941;50.800;4.342;2023-07-24T05:34:19;17.80;99.90
34833;DHT22;55941;50.800;4.342;2023-07-24T05:36:45;17.80;99.90
34833;DHT22;55941;50.800;4.342;2023-07-24T05:39:11;17.70;99.90
34833;DHT22;55941;50.800;4.342;2023-07-24T05:41:36;17.60;99.90
34833;DHT22;55941;50.800;4.342;2023-07-24T05:44:02;17.60;99.90
34833;DHT22;55941;50.800;4.342;2023-07-24T05:46:28;17.60;99.90
34833;DHT22;55941;50.800;4.342;2023-07-24T05:48:53;17.70;99.90
34833;DHT22;55941;50.800;4.342;2023-07-24T05:51:19;17.80;99.90
34833;DHT22;55941;50.800;4.342;2023-07-24T05:53:45;17.70;99.90
34833;DHT22;55941;50.800;4.342;2023-07-24T05:56:10;17.80;99.90
34833;DHT22;55941;50.800;4.342;2023-07-24T05:58:36;17.70;99.90
34833;DHT22;55941;50.800;4.342;2023-07-24T06:01:02;17.80;99.90
34833;DHT22;55941;50.800;4.342;2023-07-24T06:03:27;17.80;99.90
34833;DHT22;55941;50.800;4.342;2023-07-24T06:05:54;17.70;99.90
34833;DHT22;55941;50.800;4.342;2023-07-24T06:08:20;17.70;99.90
34833;DHT22;55941;50.800;4.342;2023-07-24T06:10:50;17.60;99.90
34833;DHT22;55941;50.800;4.342;2023-07-24T06:13:19;17.60;99.90
34833;DHT22;55941;50.800;4.342;2023-07-24T06:15:47;17.60;99.90
34833;DHT22;55941;50.800;4.342;2023-07-24T06:18:14;17.60;99.90
34833;DHT22;55941;50.800;4.342;2023-07-24T06:20:40;17.50;99.90
34833;DHT22;55941;50.800;4.342;2023-07-24T06:23:06;17.50;99.90
34833;DHT22;55941;50.800;4.342;2023-07-24T06:25:32;17.70;99.90
34833;DHT22;55941;50.800;4.342;2023-07-24T06:27:58;17.80;99.90
34833;DHT22;55941;50.800;4.342;2023-07-24T06:30:24;17.80;99.90
34833;DHT22;55941;50.800;4.342;2023-07-24T06:32:49;17.90;99.90
34833;DHT22;55941;50.800;4.342;2023-07-24T06:35:15;18.00;99.90
34833;DHT22;55941;50.800;4.342;2023-07-24T06:37:41;18.10;99.90
34833;DHT22;55941;50.800;4.342;2023-07-24T06:40:07;18.20;99.90
34833;DHT22;55941;50.800;4.342;2023-07-24T06:42:34;18.30;99.90
34833;DHT22;55941;50.800;4.342;2023-07-24T06:45:01;18.30;99.90
34833;DHT22;55941;50.800;4.342;2023-07-24T06:47:27;18.30;99.90
34833;DHT22;55941;50.800;4.342;2023-07-24T06:49:53;18.20;99.90
34833;DHT22;55941;50.800;4.342;2023-07-24T06:52:18;18.10;99.90
34833;DHT22;55941;50.800;4.342;2023-07-24T06:54:44;18.00;99.90
34833;DHT22;55941;50.800;4.342;2023-07-24T06:57:10;18.00;99.90
34833;DHT22;55941;50.800;4.342;2023-07-24T06:59:35;18.10;99.90
34833;DHT22;55941;50.800;4.342;2023-07-24T07:02:01;18.10;99.90
34833;DHT22;55941;50.800;4.342;2023-07-24T07:04:27;18.10;99.90
34833;DHT22;55941;50.800;4.342;2023-07-24T07:06:52;18.00;99.90
34833;DHT22;55941;50.800;4.342;2023-07-24T07:09:18;18.00;99.90
34833;DHT22;55941;50.800;4.342;2023-07-24T07:11:44;18.00;99.90
34833;DHT22;55941;50.800;4.342;2023-07-24T07:14:11;18.00;99.90
34833;DHT22;55941;50.800;4.342;2023-07-24T07:16:38;18.00;99.90
34833;DHT22;55941;50.800;4.342;2023-07-24T07:19:03;18.10;99.90
34833;DHT22;55941;50.800;4.342;2023-07-24T07:21:30;18.10;99.90
34833;DHT22;55941;50.800;4.342;2023-07-24T07:23:56;18.00;99.90
34833;DHT22;55941;50.800;4.342;2023-07-24T07:26:22;18.10;99.90
34833;DHT22;55941;50.800;4.342;2023-07-24T07:28:48;18.20;99.90
34833;DHT22;55941;50.800;4.342;2023-07-24T07:31:14;18.30;99.90
34833;DHT22;55941;50.800;4.342;2023-07-24T07:33:39;18.50;99.90
34833;DHT22;55941;50.800;4.342;2023-07-24T07:36:05;18.60;99.90
34833;DHT22;55941;50.800;4.342;2023-07-24T07:38:31;18.70;99.90
34833;DHT22;55941;50.800;4.342;2023-07-24T07:40:57;18.60;99.90
34833;DHT22;55941;50.800;4.342;2023-07-24T07:43:23;18.50;99.90
34833;DHT22;55941;50.800;4.342;2023-07-24T07:45:49;18.50;99.90
34833;DHT22;55941;50.800;4.342;2023-07-24T07:48:14;18.50;99.90
34833;DHT22;55941;50.800;4.342;2023-07-24T07:50:40;18.60;99.90
34833;DHT22;55941;50.800;4.342;2023-07-24T07:53:06;18.60;99.90
34833;DHT22;55941;50.800;4.342;2023-07-24T07:55:32;18.60;99.90
34833;DHT22;55941;50.800;4.342;2023-07-24T07:57:57;18.70;99.90
34833;DHT22;55941;50.800;4.342;2023-07-24T08:00:23;18.80;99.90
34833;DHT22;55941;50.800;4.342;2023-07-24T08:02:49;18.90;99.90
34833;DHT22;55941;50.800;4.342;2023-07-24T08:05:14;19.00;99.90
34833;DHT22;55941;50.800;4.342;2023-07-24T08:07:41;18.90;99.90
34833;DHT22;55941;50.800;4.342;2023-07-24T08:10:07;18.70;99.90
34833;DHT22;55941;50.800;4.342;2023-07-24T08:12:33;18.70;99.90
34833;DHT22;55941;50.800;4.342;2023-07-24T08:14:59;18.70;99.90
34833;DHT22;55941;50.800;4.342;2023-07-24T08:17:25;18.60;99.90
34833;DHT22;55941;50.800;4.342;2023-07-24T08:19:51;18.60;99.90
34833;DHT22;55941;50.800;4.342;2023-07-24T08:22:16;18.60;99.90
34833;DHT22;55941;50.800;4.342;2023-07-24T08:24:42;18.80;99.90
34833;DHT22;55941;50.800;4.342;2023-07-24T08:27:10;18.90;99.90
34833;DHT22;55941;50.800;4.342;2023-07-24T08:29:35;18.90;99.90
34833;DHT22;55941;50.800;4.342;2023-07-24T08:32:04;18.90;99.90
34833;DHT22;55941;50.800;4.342;2023-07-24T08:34:30;19.00;99.90
34833;DHT22;55941;50.800;4.342;2023-07-24T08:36:56;19.00;99.90
34833;DHT22;55941;50.800;4.342;2023-07-24T08:39:21;19.00;99.90
34833;DHT22;55941;50.800;4.342;2023-07-24T08:41:49;19.20;99.90
34833;DHT22;55941;50.800;4.342;2023-07-24T08:44:16;19.10;99.90
34833;DHT22;55941;50.800;4.342;2023-07-24T08:46:43;19.10;99.90
34833;DHT22;55941;50.800;4.342;2023-07-24T08:49:12;19.30;99.90
34833;DHT22;55941;50.800;4.342;2023-07-24T08:51:42;19.10;99.90
34833;DHT22;55941;50.800;4.342;2023-07-24T08:54:11;18.90;99.90
34833;DHT22;55941;50.800;4.342;2023-07-24T08:56:37;18.60;99.90
34833;DHT22;55941;50.800;4.342;2023-07-24T08:59:05;18.60;99.90
34833;DHT22;55941;50.800;4.342;2023-07-24T09:01:31;18.80;99.90
34833;DHT22;55941;50.800;4.342;2023-07-24T09:03:57;19.00;99.90
34833;DHT22;55941;50.800;4.342;2023-07-24T09:06:23;18.90;99.90
34833;DHT22;55941;50.800;4.342;2023-07-24T09:08:48;18.60;99.90
34833;DHT22;55941;50.800;4.342;2023-07-24T09:11:14;18.70;99.90
34833;DHT22;55941;50.800;4.342;2023-07-24T09:13:44;18.70;99.90
34833;DHT22;55941;50.800;4.342;2023-07-24T09:16:21;18.60;99.90
34833;DHT22;55941;50.800;4.342;2023-07-24T09:18:48;18.50;99.90
34833;DHT22;55941;50.800;4.342;2023-07-24T09:21:13;18.40;99.90
34833;DHT22;55941;50.800;4.342;2023-07-24T09:23:42;18.50;99.90
34833;DHT22;55941;50.800;4.342;2023-07-24T09:26:09;18.80;99.90
34833;DHT22;55941;50.800;4.342;2023-07-24T09:28:35;18.90;99.90
34833;DHT22;55941;50.800;4.342;2023-07-24T09:31:01;18.80;99.90
34833;DHT22;55941;50.800;4.342;2023-07-24T09:33:39;18.70;99.90
34833;DHT22;55941;50.800;4.342;2023-07-24T09:36:06;18.70;99.90
34833;DHT22;55941;50.800;4.342;2023-07-24T09:38:35;18.90;99.90
34833;DHT22;55941;50.800;4.342;2023-07-24T09:41:02;19.20;99.90
34833;DHT22;55941;50.800;4.342;2023-07-24T09:43:29;19.20;99.90
34833;DHT22;55941;50.800;4.342;2023-07-24T09:45:55;19.40;99.90
34833;DHT22;55941;50.800;4.342;2023-07-24T09:48:23;19.40;99.90
34833;DHT22;55941;50.800;4.342;2023-07-24T09:50:54;19.30;99.90
34833;DHT22;55941;50.800;4.342;2023-07-24T09:55:53;18.70;99.90
34833;DHT22;55941;50.800;4.342;2023-07-24T09:58:23;18.70;99.90
34833;DHT22;55941;50.800;4.342;2023-07-24T10:00:49;18.60;99.90
34833;DHT22;55941;50.800;4.342;2023-07-24T10:03:16;18.40;99.90
34833;DHT22;55941;50.800;4.342;2023-07-24T10:05:44;18.40;99.90
34833;DHT22;55941;50.800;4.342;2023-07-24T10:08:18;18.20;99.90
34833;DHT22;55941;50.800;4.342;2023-07-24T10:10:44;18.20;99.90
34833;DHT22;55941;50.800;4.342;2023-07-24T10:13:12;18.30;99.90
34833;DHT22;55941;50.800;4.342;2023-07-24T10:15:41;18.50;99.90
34833;DHT22;55941;50.800;4.342;2023-07-24T10:18:08;18.70;99.90
34833;DHT22;55941;50.800;4.342;2023-07-24T10:20:40;18.90;99.90
34833;DHT22;55941;50.800;4.342;2023-07-24T10:23:08;19.30;99.90
34833;DHT22;55941;50.800;4.342;2023-07-24T10:25:36;19.60;99.90
34833;DHT22;55941;50.800;4.342;2023-07-24T10:28:05;19.70;99.90
34833;DHT22;55941;50.800;4.342;2023-07-24T10:30:34;19.80;99.90
34833;DHT22;55941;50.800;4.342;2023-07-24T10:33:12;19.80;99.90
34833;DHT22;55941;50.800;4.342;2023-07-24T10:35:45;19.90;99.90
34833;DHT22;55941;50.800;4.342;2023-07-24T10:38:16;19.90;99.90
34833;DHT22;55941;50.800;4.342;2023-07-24T10:40:43;19.80;99.90
34833;DHT22;55941;50.800;4.342;2023-07-24T10:43:19;19.80;99.90
34833;DHT22;55941;50.800;4.342;2023-07-24T10:45:49;19.90;99.90
34833;DHT22;55941;50.800;4.342;2023-07-24T10:48:20;20.10;99.90
34833;DHT22;55941;50.800;4.342;2023-07-24T10:50:48;20.40;99.90
34833;DHT22;55941;50.800;4.342;2023-07-24T10:53:16;20.60;99.90
34833;DHT22;55941;50.800;4.342;2023-07-24T10:55:43;20.40;99.90
34833;DHT22;55941;50.800;4.342;2023-07-24T10:58:11;20.20;99.90
34833;DHT22;55941;50.800;4.342;2023-07-24T11:00:39;19.90;99.90
34833;DHT22;55941;50.800;4.342;2023-07-24T11:03:11;19.80;99.90
34833;DHT22;55941;50.800;4.342;2023-07-24T11:05:44;19.90;99.90
34833;DHT22;55941;50.800;4.342;2023-07-24T11:08:18;19.80;99.90
34833;DHT22;55941;50.800;4.342;2023-07-24T11:10:51;19.70;99.90
34833;DHT22;55941;50.800;4.342;2023-07-24T11:13:25;19.70;99.90
34833;DHT22;55941;50.800;4.342;2023-07-24T11:15:52;19.80;99.90
34833;DHT22;55941;50.800;4.342;2023-07-24T11:18:19;19.80;99.90
34833;DHT22;55941;50.800;4.342;2023-07-24T11:20:54;19.70;99.90
34833;DHT22;55941;50.800;4.342;2023-07-24T11:23:21;19.60;99.90
34833;DHT22;55941;50.800;4.342;2023-07-24T11:25:49;19.50;99.90
34833;DHT22;55941;50.800;4.342;2023-07-24T11:28:15;19.60;99.90
34833;DHT22;55941;50.800;4.342;2023-07-24T11:30:42;19.60;99.90
34833;DHT22;55941;50.800;4.342;2023-07-24T11:33:09;19.70;99.90
34833;DHT22;55941;50.800;4.342;2023-07-24T11:35:36;19.90;99.90
34833;DHT22;55941;50.800;4.342;2023-07-24T11:38:04;20.00;99.90
34833;DHT22;55941;50.800;4.342;2023-07-24T11:40:36;20.30;99.90
34833;DHT22;55941;50.800;4.342;2023-07-24T11:43:05;20.80;99.90
34833;DHT22;55941;50.800;4.342;2023-07-24T11:45:31;21.10;99.90
34833;DHT22;55941;50.800;4.342;2023-07-24T11:48:10;21.10;99.90
34833;DHT22;55941;50.800;4.342;2023-07-24T11:50:50;21.20;99.90
34833;DHT22;55941;50.800;4.342;2023-07-24T11:53:26;21.60;99.90
34833;DHT22;55941;50.800;4.342;2023-07-24T11:55:53;22.00;99.90
34833;DHT22;55941;50.800;4.342;2023-07-24T11:58:20;22.10;99.90
34833;DHT22;55941;50.800;4.342;2023-07-24T12:00:47;21.90;99.90
34833;DHT22;55941;50.800;4.342;2023-07-24T12:03:14;22.30;99.90
34833;DHT22;55941;50.800;4.342;2023-07-24T12:05:44;22.70;99.90
34833;DHT22;55941;50.800;4.342;2023-07-24T12:08:10;23.10;99.90
34833;DHT22;55941;50.800;4.342;2023-07-24T12:10:37;23.90;99.90
34833;DHT22;55941;50.800;4.342;2023-07-24T12:13:03;24.80;99.90
34833;DHT22;55941;50.800;4.342;2023-07-24T12:15:30;24.90;99.90
34833;DHT22;55941;50.800;4.342;2023-07-24T12:17:56;24.20;99.90
34833;DHT22;55941;50.800;4.342;2023-07-24T12:20:22;23.90;99.90
34833;DHT22;55941;50.800;4.342;2023-07-24T12:22:48;23.40;99.90
34833;DHT22;55941;50.800;4.342;2023-07-24T12:25:14;23.40;99.90
34833;DHT22;55941;50.800;4.342;2023-07-24T12:27:41;23.10;99.90
34833;DHT22;55941;50.800;4.342;2023-07-24T12:30:13;23.00;99.90
34833;DHT22;55941;50.800;4.342;2023-07-24T12:32:39;22.60;99.90
34833;DHT22;55941;50.800;4.342;2023-07-24T12:35:06;22.30;99.90
34833;DHT22;55941;50.800;4.342;2023-07-24T12:37:32;21.90;99.90
34833;DHT22;55941;50.800;4.342;2023-07-24T12:39:58;21.60;99.90
34833;DHT22;55941;50.800;4.342;2023-07-24T12:42:23;21.40;99.90
34833;DHT22;55941;50.800;4.342;2023-07-24T12:44:49;21.40;99.90
34833;DHT22;55941;50.800;4.342;2023-07-24T12:47:15;21.50;99.90
34833;DHT22;55941;50.800;4.342;2023-07-24T12:49:43;21.50;99.90
34833;DHT22;55941;50.800;4.342;2023-07-24T12:52:08;22.10;99.90
34833;DHT22;55941;50.800;4.342;2023-07-24T12:54:34;22.40;99.90
34833;DHT22;55941;50.800;4.342;2023-07-24T12:57:01;22.40;99.90
34833;DHT22;55941;50.800;4.342;2023-07-24T12:59:28;22.20;99.90
34833;DHT22;55941;50.800;4.342;2023-07-24T13:01:54;21.90;99.90
34833;DHT22;55941;50.800;4.342;2023-07-24T13:04:20;21.50;99.90
34833;DHT22;55941;50.800;4.342;2023-07-24T13:06:46;21.20;99.90
34833;DHT22;55941;50.800;4.342;2023-07-24T13:09:11;21.10;99.90
34833;DHT22;55941;50.800;4.342;2023-07-24T13:11:37;20.90;99.90
34833;DHT22;55941;50.800;4.342;2023-07-24T13:14:04;20.70;99.90
34833;DHT22;55941;50.800;4.342;2023-07-24T13:16:29;20.80;99.90
34833;DHT22;55941;50.800;4.342;2023-07-24T13:18:56;21.10;99.90
34833;DHT22;55941;50.800;4.342;2023-07-24T13:21:24;21.00;99.90
34833;DHT22;55941;50.800;4.342;2023-07-24T13:23:49;20.90;99.90
34833;DHT22;55941;50.800;4.342;2023-07-24T13:26:15;20.80;99.90
34833;DHT22;55941;50.800;4.342;2023-07-24T13:28:42;21.10;99.90
34833;DHT22;55941;50.800;4.342;2023-07-24T13:31:19;21.40;99.90
34833;DHT22;55941;50.800;4.342;2023-07-24T13:33:47;21.50;99.90
34833;DHT22;55941;50.800;4.342;2023-07-24T13:36:13;21.30;99.90
34833;DHT22;55941;50.800;4.342;2023-07-24T13:38:39;21.00;99.90
34833;DHT22;55941;50.800;4.342;2023-07-24T13:41:05;20.90;99.90
34833;DHT22;55941;50.800;4.342;2023-07-24T13:43:32;20.90;99.90
34833;DHT22;55941;50.800;4.342;2023-07-24T13:45:58;20.90;99.90
34833;DHT22;55941;50.800;4.342;2023-07-24T13:48:24;21.30;99.90
34833;DHT22;55941;50.800;4.342;2023-07-24T13:50:50;21.80;99.90
34833;DHT22;55941;50.800;4.342;2023-07-24T13:53:16;22.00;99.90
34833;DHT22;55941;50.800;4.342;2023-07-24T13:55:42;22.00;99.90
34833;DHT22;55941;50.800;4.342;2023-07-24T13:58:07;22.20;99.90
34833;DHT22;55941;50.800;4.342;2023-07-24T14:00:35;22.20;99.90
34833;DHT22;55941;50.800;4.342;2023-07-24T14:03:01;22.00;99.90
34833;DHT22;55941;50.800;4.342;2023-07-24T14:05:27;21.80;99.90
34833;DHT22;55941;50.800;4.342;2023-07-24T14:07:54;22.00;99.90
34833;DHT22;55941;50.800;4.342;2023-07-24T14:10:20;22.40;99.90
34833;DHT22;55941;50.800;4.342;2023-07-24T14:12:46;22.60;99.90
34833;DHT22;55941;50.800;4.342;2023-07-24T14:15:12;22.50;99.90
34833;DHT22;55941;50.800;4.342;2023-07-24T14:17:37;22.00;99.90
34833;DHT22;55941;50.800;4.342;2023-07-24T14:20:03;21.90;99.90
34833;DHT22;55941;50.800;4.342;2023-07-24T14:22:29;22.00;99.90
34833;DHT22;55941;50.800;4.342;2023-07-24T14:24:57;22.00;99.90
34833;DHT22;55941;50.800;4.342;2023-07-24T14:27:22;21.60;99.90
34833;DHT22;55941;50.800;4.342;2023-07-24T14:29:49;22.00;99.90
34833;DHT22;55941;50.800;4.342;2023-07-24T14:32:15;22.30;99.90
34833;DHT22;55941;50.800;4.342;2023-07-24T14:34:41;22.10;99.90
34833;DHT22;55941;50.800;4.342;2023-07-24T14:37:07;21.90;99.90
34833;DHT22;55941;50.800;4.342;2023-07-24T14:39:32;21.70;99.90
34833;DHT22;55941;50.800;4.342;2023-07-24T14:41:58;22.20;99.90
34833;DHT22;55941;50.800;4.342;2023-07-24T14:44:24;23.10;99.90
34833;DHT22;55941;50.800;4.342;2023-07-24T14:46:56;23.20;99.90
34833;DHT22;55941;50.800;4.342;2023-07-24T14:49:22;22.90;99.90
34833;DHT22;55941;50.800;4.342;2023-07-24T14:51:48;23.10;99.90
34833;DHT22;55941;50.800;4.342;2023-07-24T14:54:14;23.80;99.90
34833;DHT22;55941;50.800;4.342;2023-07-24T14:56:39;23.90;99.90
34833;DHT22;55941;50.800;4.342;2023-07-24T14:59:06;23.90;99.90
34833;DHT22;55941;50.800;4.342;2023-07-24T15:01:32;23.90;99.90
34833;DHT22;55941;50.800;4.342;2023-07-24T15:03:57;23.80;99.90
34833;DHT22;55941;50.800;4.342;2023-07-24T15:06:23;23.40;99.90
34833;DHT22;55941;50.800;4.342;2023-07-24T15:08:52;23.00;99.90
34833;DHT22;55941;50.800;4.342;2023-07-24T15:11:24;22.30;99.90
34833;DHT22;55941;50.800;4.342;2023-07-24T15:13:51;22.00;99.90
34833;DHT22;55941;50.800;4.342;2023-07-24T15:16:17;21.80;99.90
34833;DHT22;55941;50.800;4.342;2023-07-24T15:18:46;21.50;99.90
34833;DHT22;55941;50.800;4.342;2023-07-24T15:21:11;20.80;99.90
34833;DHT22;55941;50.800;4.342;2023-07-24T15:23:37;20.20;99.90
34833;DHT22;55941;50.800;4.342;2023-07-24T15:26:03;19.90;99.90
34833;DHT22;55941;50.800;4.342;2023-07-24T15:28:28;19.60;99.90
34833;DHT22;55941;50.800;4.342;2023-07-24T15:30:54;18.90;99.90
34833;DHT22;55941;50.800;4.342;2023-07-24T15:33:20;18.20;99.90